METAR Data
IDs: Format: Raw Decoded Include TAF

Data at: 0400 UTC 06 Dec 2019

METAR for:KLRJ (Le Mars Muni, IA, US)
Text:KLRJ 060355Z AUTO 35013G21KT 320V020 10SM OVC014 M01/M02 A3019 RMK AO2
Temperature: -1.0°C ( 30°F)
Dewpoint: -2.0°C ( 28°F) [RH = 93%]
Pressure (altimeter):30.19 inches Hg (1022.4 mb)
Winds:from the N (350 degrees) at 15 MPH (13 knots; 6.7 m/s) gusting to 24 MPH (21 knots; 10.8 m/s)
Visibility:10 or more sm (16+ km)
Ceiling:1400 feet AGL
Clouds: overcast cloud deck at 1400 feet AGL
QC Flag:automated observation with no human augmentation